Latest Weather Observations for Dubbo

IDN60801

Issued at 11:05 pm EST Saturday 23 August 2014 (issued every 30 minutes, with the page automatically refreshed every 10 minutes)

About weather observations | Map of weather stations | Latest weather observations for NSW | Other Formats
Station Details ID: 065070 Name: DUBBO AIRPORT AWS Lat: -32.22 Lon: 148.58 Height: 284.0 m
Data from the previous 72 hours. | See also: Recent months at Dubbo
Date/Time
EST
Temp
°C
App
Temp
°C
Dew
Point
Rel
Hum
%
Delta-T
°C
Wind Press
QNH
hPa
Press
MSL
hPa
Rain
since 9 am
mm
Dir
 
Spd
km/h
Gust
km/h
Spd
kts
Gust
kts
23/11:00pm 11.3 7.4 8.5 83 1.4 ESE 19 30 10 16 1028.5 1028.8 0.0
23/10:30pm 11.4 7.8 8.4 82 1.5 E 17 19 9 10 1028.7 - 0.0
23/10:00pm 11.3 7.7 8.2 81 1.5 E 17 20 9 11 1028.5 1028.8 0.0
23/09:30pm 10.9 8.0 8.0 82 1.4 ESE 13 17 7 9 1028.5 - 0.0
23/09:00pm 10.1 7.5 7.7 85 1.2 ESE 11 13 6 7 1028.5 1028.8 0.0
23/08:30pm 9.9 7.2 7.2 83 1.3 ESE 11 11 6 6 1028.3 - 0.0
23/08:00pm 10.2 7.9 7.3 82 1.4 ESE 9 11 5 6 1028.0 1028.3 0.0
23/07:30pm 11.2 8.5 7.5 78 1.8 ESE 11 11 6 6 1027.8 - 0.0
23/07:00pm 11.6 8.6 7.5 76 2.0 SE 13 13 7 7 1027.4 1027.6 0.0
23/06:30pm 12.3 9.9 7.2 71 2.5 ESE 9 11 5 6 1027.2 - 0.0
23/06:00pm 13.2 10.8 7.2 67 2.9 SE 9 9 5 5 1026.8 1027.1 0.0
23/05:30pm 15.5 13.3 8.0 61 3.8 ESE 9 9 5 5 1026.7 - 0.0
23/05:00pm 17.2 15.0 7.8 54 4.8 ESE 9 13 5 7 1026.4 1026.7 0.0
23/04:30pm 18.2 15.6 7.9 51 5.3 ESE 11 15 6 8 1026.2 - 0.0
23/04:00pm 18.5 15.5 7.6 49 5.6 E 13 20 7 11 1026.2 1026.5 0.0
23/03:30pm 18.6 15.4 8.3 51 5.4 E 15 20 8 11 1026.2 - 0.0
23/03:00pm 18.9 15.0 8.6 51 5.4 SE 19 28 10 15 1026.3 1026.6 0.0
23/02:30pm 17.7 14.9 8.6 55 4.8 ESE 13 19 7 10 1026.5 - 0.0
23/02:00pm 18.4 14.6 8.9 54 5.0 SE 19 28 10 15 1026.6 1026.9 0.0
23/01:30pm 18.3 15.3 9.1 55 4.9 ESE 15 22 8 12 1026.9 - 0.0
23/01:00pm 18.7 16.2 9.8 56 4.8 ESE 13 20 7 11 1027.4 1027.6 0.0
23/12:30pm 17.5 14.9 9.4 59 4.3 ESE 13 20 7 11 1027.8 - 0.0
23/12:16pm 17.8 14.2 9.9 60 4.2 SE 19 22 10 12 1027.9 - 0.0
23/12:00pm 17.6 15.0 9.5 59 4.3 ESE 13 22 7 12 1028.2 1028.5 0.0
23/11:56am 17.2 14.1 8.9 58 4.4 ESE 15 22 8 12 1028.3 - 0.0
23/11:30am 17.3 14.0 9.7 61 4.0 E 17 22 9 12 1028.7 - 0.0
23/11:00am 16.5 13.2 9.7 64 3.6 ESE 17 22 9 12 1029.1 1029.4 0.0
23/10:30am 16.4 13.3 10.3 67 3.3 ESE 17 24 9 13 1029.2 - 0.0
23/10:00am 15.5 11.8 9.6 68 3.1 ESE 19 28 10 15 1029.3 1029.6 0.0
23/09:30am 14.4 10.1 9.4 72 2.6 ESE 22 30 12 16 1029.4 - 0.0
23/08:30am 11.3 7.3 8.2 81 1.5 SE 19 26 10 14 1029.6 - 0.0
23/08:00am 9.8 5.4 7.2 84 1.2 SSE 20 24 11 13 1029.4 1029.7 0.0
23/07:30am 8.6 4.1 6.9 89 0.8 SSE 20 24 11 13 1029.1 - 0.0
23/07:00am 7.3 2.6 6.2 93 0.5 SSE 20 24 11 13 1028.9 1029.2 0.0
23/06:30am 7.1 2.4 6.0 93 0.5 SSE 20 24 11 13 1028.5 - 0.0
23/06:00am 7.6 3.0 6.4 92 0.6 SSE 20 24 11 13 1028.3 1028.6 0.0
23/05:30am 7.9 2.9 6.5 91 0.7 SSE 22 26 12 14 1028.0 - 0.0
23/05:00am 7.8 2.8 6.3 90 0.7 SSE 22 28 12 15 1027.8 1028.0 0.0
23/04:30am 8.2 3.8 6.5 89 0.8 SSE 19 24 10 13 1027.7 - 0.0
23/04:00am 8.2 3.7 6.8 91 0.7 SSE 20 28 11 15 1027.5 1027.7 0.0
23/03:30am 7.6 3.0 6.4 92 0.6 SSE 20 22 11 12 1027.7 - 0.0
23/03:00am 7.9 3.5 6.5 91 0.6 SSE 19 20 10 11 1027.7 1027.9 0.0
23/02:30am 8.1 3.5 6.6 90 0.7 SSE 20 24 11 13 1027.8 - 0.0
23/02:00am 8.2 3.9 6.8 91 0.7 SSE 19 22 10 12 1027.8 1028.0 0.0
23/01:30am 7.7 3.6 6.3 91 0.6 SSE 17 20 9 11 1028.1 - 0.0
23/01:00am 8.5 4.4 6.3 86 1.0 SE 17 28 9 15 1028.3 1028.6 0.0
23/12:30am 9.8 5.5 7.2 84 1.3 SE 19 24 10 13 1028.3 - 0.0
23/12:00am 10.2 5.8 7.4 83 1.3 SE 20 24 11 13 1028.3 1028.6 0.0
 
Date/Time
EST
Temp
°C
App
Temp
°C
Dew
Point
Rel
Hum
%
Delta-T
°C
Wind Press
QNH
hPa
Press
MSL
hPa
Rain
since 9 am
mm
Dir
 
Spd
km/h
Gust
km/h
Spd
kts
Gust
kts
22/11:30pm 10.3 6.1 7.5 83 1.4 SSE 19 20 10 11 1028.5 - 0.0
22/11:00pm 10.7 6.5 7.4 80 1.6 SE 19 24 10 13 1028.5 1028.8 0.0
22/10:30pm 11.4 7.2 7.5 77 1.9 SE 19 24 10 13 1028.6 - 0.0
22/10:00pm 11.6 7.2 7.5 76 2.0 ESE 20 28 11 15 1028.7 1029.0 0.0
22/09:30pm 11.7 7.5 7.6 76 2.0 ESE 19 24 10 13 1028.7 - 0.0
22/09:00pm 10.2 6.2 6.7 79 1.7 E 17 20 9 11 1028.6 1028.9 0.0
22/08:30pm 9.4 6.0 5.9 79 1.6 ESE 13 15 7 8 1028.3 - 0.0
22/08:00pm 10.1 6.4 6.4 78 1.7 SSE 15 15 8 8 1028.0 1028.3 0.0
22/07:30pm 9.7 6.5 5.1 73 2.1 SE 11 13 6 7 1027.7 - 0.0
22/07:00pm 11.7 8.8 6.4 70 2.5 SE 11 13 6 7 1027.4 1027.6 0.0
22/06:30pm 12.5 9.6 6.5 67 2.9 SE 11 13 6 7 1027.1 - 0.0
22/06:00pm 12.8 9.8 5.9 63 3.3 ESE 11 11 6 6 1026.6 1026.9 0.0
22/05:30pm 14.7 11.7 6.0 56 4.2 ESE 11 13 6 7 1026.4 - 0.0
22/05:00pm 17.4 13.4 6.6 49 5.4 E 17 24 9 13 1026.1 1026.4 0.0
22/04:30pm 18.2 14.1 6.4 46 5.9 E 17 24 9 13 1025.9 - 0.0
22/04:00pm 18.7 15.1 6.9 46 6.0 E 15 24 8 13 1025.7 1026.0 0.0
22/03:30pm 18.2 14.3 7.0 48 5.7 ESE 17 22 9 12 1025.9 - 0.0
22/03:00pm 19.2 16.1 7.3 46 6.1 E 13 19 7 10 1026.1 1026.4 0.0
22/02:30pm 17.7 13.5 7.4 51 5.3 SE 19 22 10 12 1026.3 - 0.0
22/02:00pm 19.3 16.0 8.0 48 5.9 E 15 22 8 12 1026.5 1026.8 0.0
22/01:30pm 18.3 15.1 8.6 53 5.1 ESE 15 22 8 12 1027.2 - 0.0
22/01:00pm 17.5 13.3 8.4 55 4.7 E 20 30 11 16 1027.6 1027.8 0.0
22/12:30pm 17.6 13.7 8.7 56 4.7 E 19 24 10 13 1028.1 - 0.0
22/12:00pm 17.5 13.7 9.9 61 4.0 E 20 28 11 15 1028.6 1028.9 0.0
22/11:30am 16.7 12.4 9.4 62 3.9 E 22 30 12 16 1029.2 - 0.0
22/11:00am 17.1 12.7 10.5 65 3.5 E 24 35 13 19 1029.6 1029.9 0.0
22/10:30am 16.3 11.3 9.7 65 3.5 E 26 35 14 19 1029.8 - 0.0
22/10:00am 15.4 10.2 8.9 65 3.3 E 26 35 14 19 1029.9 1030.2 0.0
22/09:30am 14.8 9.2 8.7 67 3.1 E 28 37 15 20 1030.0 - 0.0
22/09:00am 14.0 8.8 9.0 72 2.6 E 26 35 14 19 1029.9 1030.2 0.0
22/08:30am 12.8 6.9 8.9 77 2.0 E 30 39 16 21 1029.8 - 0.0
22/08:21am 12.5 6.9 8.8 78 1.9 E 28 46 15 25 1029.7 - 0.0
22/08:00am 11.9 7.1 8.9 82 1.5 E 24 33 13 18 1029.3 1029.6 0.0
22/07:33am 10.3 6.9 9.1 92 0.6 SE 17 24 9 13 1029.0 - 0.0
22/07:30am 9.5 5.9 8.3 92 0.6 SE 17 22 9 12 1028.9 - 0.0
22/07:00am 8.4 4.2 7.5 94 0.4 ESE 19 24 10 13 1028.7 1029.0 0.0
22/06:59am 8.6 4.5 7.8 95 0.4 ESE 19 24 10 13 1028.7 - 0.0
22/06:30am 8.2 4.1 7.9 98 0.1 ESE 19 26 10 14 1028.3 - 0.0
22/06:00am 7.3 2.9 6.7 96 0.3 ESE 19 26 10 14 1027.9 1028.1 0.0
22/05:30am 7.6 3.1 6.9 95 0.3 ESE 20 28 11 15 1027.7 - 0.0
22/05:00am 7.6 3.3 6.9 95 0.3 ESE 19 24 10 13 1027.6 1027.8 0.0
22/04:30am 6.7 2.6 6.0 95 0.3 SE 17 19 9 10 1027.4 - 0.0
22/04:00am 6.5 2.6 5.5 93 0.4 SE 15 19 8 10 1027.2 1027.4 0.0
22/03:30am 6.9 2.3 5.8 93 0.5 SSE 19 20 10 11 1026.9 - 0.0
22/03:00am 7.0 2.5 5.9 93 0.5 SSE 19 20 10 11 1026.9 1027.2 0.0
22/02:30am 7.8 3.7 6.4 91 0.7 SE 17 20 9 11 1027.1 - 0.0
22/02:00am 8.2 3.9 6.8 91 0.7 ESE 19 22 10 12 1027.3 1027.5 0.0
22/01:30am 8.6 4.8 7.5 93 0.5 ESE 17 22 9 12 1027.5 - 0.0
22/01:00am 7.8 4.2 6.6 92 0.6 SE 15 19 8 10 1027.7 1027.9 0.0
22/12:30am 7.8 3.7 6.1 89 0.8 SE 17 19 9 10 1027.8 - 0.0
22/12:00am 8.3 4.2 6.3 87 0.9 SE 17 20 9 11 1027.7 1027.9 0.0
 
Date/Time
EST
Temp
°C
App
Temp
°C
Dew
Point
Rel
Hum
%
Delta-T
°C
Wind Press
QNH
hPa
Press
MSL
hPa
Rain
since 9 am
mm
Dir
 
Spd
km/h
Gust
km/h
Spd
kts
Gust
kts
21/11:30pm 8.7 4.7 6.7 87 0.9 ESE 17 22 9 12 1027.7 - 0.0
21/11:00pm 8.8 4.8 6.6 86 1.0 ESE 17 20 9 11 1027.6 1027.8 0.0
21/10:30pm 8.3 4.6 6.1 86 1.0 SE 15 17 8 9 1027.4 - 0.0
21/10:00pm 9.6 5.6 6.5 81 1.5 ESE 17 20 9 11 1027.3 1027.5 0.0
21/09:30pm 10.7 6.4 7.0 78 1.8 ESE 19 26 10 14 1027.2 - 0.0
21/09:00pm 11.1 7.3 7.4 78 1.8 ESE 17 28 9 15 1026.6 1026.9 0.0
21/08:30pm 11.4 7.5 6.9 74 2.2 SE 17 22 9 12 1026.6 - 0.0
21/08:00pm 11.9 8.0 7.2 73 2.3 ESE 17 22 9 12 1026.3 1026.6 0.0
21/07:30pm 11.3 7.7 6.8 74 2.2 SE 15 22 8 12 1026.2 - 0.0
21/07:00pm 11.9 8.0 7.0 72 2.4 SE 17 24 9 13 1025.9 1026.2 0.0
21/06:30pm 12.0 8.3 6.1 67 2.8 ESE 15 19 8 10 1025.6 - 0.0
21/06:00pm 12.5 8.3 5.7 63 3.2 ESE 17 20 9 11 1025.3 1025.6 0.0
21/05:30pm 14.8 10.3 5.9 55 4.3 E 19 28 10 15 1024.9 - 0.0
21/05:00pm 15.8 10.7 6.0 52 4.8 E 22 28 12 15 1024.7 1024.9 0.0
21/04:30pm 17.1 12.2 5.1 45 5.8 E 20 30 11 16 1024.4 - 0.0
21/04:00pm 17.8 12.6 5.4 44 6.1 E 22 30 12 16 1024.2 1024.4 0.0
21/03:30pm 18.4 12.8 5.6 43 6.3 E 24 30 13 16 1024.0 - 0.0
21/03:00pm 16.9 11.2 4.9 45 5.8 E 24 32 13 17 1024.0 1024.2 0.0
21/02:30pm 17.9 13.3 5.5 44 6.1 ENE 19 26 10 14 1024.1 - 0.0
21/02:00pm 17.9 12.7 5.5 44 6.1 ENE 22 30 12 16 1024.4 1024.6 0.0
21/01:30pm 18.2 13.3 7.0 48 5.7 ESE 22 33 12 18 1024.5 - 0.0
21/01:00pm 17.8 12.5 6.7 48 5.6 ESE 24 32 13 17 1024.8 1025.0 0.0
21/12:30pm 16.9 11.6 6.7 51 5.1 ESE 24 33 13 18 1025.3 - 0.0
21/12:00pm 16.7 10.6 6.5 51 5.1 E 28 35 15 19 1025.9 1026.2 0.0
21/11:30am 16.5 11.2 6.9 53 4.8 ESE 24 32 13 17 1026.3 - 0.0
21/11:00am 16.0 10.5 7.7 58 4.2 E 26 37 14 20 1026.6 1026.9 0.0
21/10:30am 15.0 9.9 7.8 62 3.6 ESE 24 35 13 19 1027.1 - 0.0
21/10:00am 13.8 8.7 7.8 67 3.0 ESE 24 39 13 21 1027.2 1027.4 0.0
21/09:30am 11.7 7.4 7.8 77 1.9 SSE 20 26 11 14 1027.4 - 0.0
21/09:00am 9.8 3.9 6.0 77 1.8 SSE 26 32 14 17 1027.4 1027.6 0.0
21/08:30am 8.5 2.6 5.8 83 1.2 SSE 26 32 14 17 1027.4 - 0.0
21/08:00am 7.4 1.8 5.4 87 0.9 SSE 24 30 13 16 1027.2 1027.4 0.0
21/07:30am 6.1 1.1 4.7 91 0.6 SSE 20 26 11 14 1026.8 - 0.0
21/07:00am 4.5 -0.7 3.8 95 0.3 SSE 20 24 11 13 1026.6 1026.9 0.0
21/06:30am 3.9 -1.2 3.2 95 0.3 SSE 19 22 10 12 1026.4 - 0.0
21/06:00am 3.8 -1.5 3.2 96 0.2 SSE 20 26 11 14 1026.2 1026.5 0.0
21/05:30am 3.5 -1.6 2.8 95 0.3 SE 19 22 10 12 1025.8 - 0.0
21/05:00am 3.9 -1.2 3.2 95 0.3 SSE 19 22 10 12 1025.8 1026.1 0.0
21/04:30am 3.9 -1.2 3.2 95 0.3 SSE 19 22 10 12 1025.9 - 0.0
21/04:00am 3.5 -0.9 2.6 94 0.4 SE 15 17 8 9 1026.0 1026.3 0.0
21/03:30am 3.7 -1.0 3.0 95 0.3 SE 17 19 9 10 1025.8 - 0.0
21/03:00am 3.9 -0.9 2.7 92 0.5 SSE 17 19 9 10 1025.8 1026.1 0.0
21/02:30am 3.7 -0.7 2.5 92 0.5 SE 15 17 8 9 1026.0 - 0.0
21/02:00am 4.1 -0.3 2.6 90 0.6 SSE 15 17 8 9 1026.0 1026.3 0.0
21/01:30am 6.0 1.8 4.0 87 0.9 SSE 15 19 8 10 1026.1 - 0.0
21/01:00am 5.0 1.0 2.7 85 0.9 SE 13 15 7 8 1026.1 1026.4 0.0
21/12:30am 7.8 3.4 4.9 82 1.3 E 17 22 9 12 1026.1 - 0.0
21/12:00am 7.9 3.8 4.3 78 1.6 ESE 15 19 8 10 1026.0 1026.3 0.0
 
Date/Time
EST
Temp
°C
App
Temp
°C
Dew
Point
Rel
Hum
%
Delta-T
°C
Wind Press
QNH
hPa
Press
MSL
hPa
Rain
since 9 am
mm
Dir
 
Spd
km/h
Gust
km/h
Spd
kts
Gust
kts
20/11:30pm 8.1 4.0 4.1 76 1.8 SE 15 19 8 10 1025.9 - 0.0

Other Formats:

Comma delimited format used in spreadsheet applications
http://www.bom.gov.au/fwo/IDN60801/IDN60801.95719.axf

JavaScript Object Notation format (JSON) in row-major order
http://www.bom.gov.au/fwo/IDN60801/IDN60801.95719.json